createdAt,value
2018-05-03T00:01:36.038Z,60.71
2018-05-03T00:04:04.312Z,60.74
2018-05-03T00:06:32.582Z,60.70
2018-05-03T00:09:00.855Z,60.82
2018-05-03T00:11:29.128Z,60.89
2018-05-03T00:13:57.405Z,60.79
2018-05-03T00:16:25.682Z,61.47
2018-05-03T00:18:53.959Z,60.77
2018-05-03T00:21:22.233Z,60.82
2018-05-03T00:23:50.510Z,60.95
2018-05-03T00:26:19.111Z,61.35
2018-05-03T00:28:47.382Z,61.27
2018-05-03T00:31:15.655Z,60.78
2018-05-03T00:33:43.938Z,61.18
2018-05-03T00:36:12.205Z,61.38
2018-05-03T00:38:40.495Z,61.48
2018-05-03T00:41:08.773Z,62.79
2018-05-03T00:43:37.040Z,62.29
2018-05-03T00:46:05.315Z,62.74
2018-05-03T00:48:33.588Z,63.22
2018-05-03T00:51:01.874Z,63.18
2018-05-03T00:53:30.147Z,62.62
2018-05-03T00:55:58.422Z,62.60
2018-05-03T00:58:26.698Z,62.38
2018-05-03T01:00:54.966Z,62.23
2018-05-03T01:03:23.254Z,62.18
2018-05-03T01:05:51.525Z,62.51
2018-05-03T01:08:19.799Z,62.40
2018-05-03T01:10:48.081Z,62.42
2018-05-03T01:13:16.354Z,62.34
2018-05-03T01:15:44.650Z,64.21
2018-05-03T01:18:12.919Z,63.77
2018-05-03T01:20:41.187Z,63.08
2018-05-03T01:23:09.462Z,62.85
2018-05-03T01:25:37.742Z,62.50
2018-05-03T01:28:06.061Z,63.01
2018-05-03T01:30:34.337Z,62.92
2018-05-03T01:33:02.609Z,63.26
2018-05-03T01:35:42.653Z,63.07
2018-05-03T01:38:11.092Z,63.63
2018-05-03T01:40:39.374Z,64.20
2018-05-03T01:43:07.650Z,63.49
2018-05-03T01:45:35.938Z,63.40
2018-05-03T01:48:04.210Z,63.41
2018-05-03T01:50:32.491Z,63.48
2018-05-03T01:53:00.778Z,63.27
2018-05-03T01:55:29.042Z,63.77
2018-05-03T01:57:57.689Z,63.98
2018-05-03T02:00:25.964Z,63.76
2018-05-03T02:02:54.239Z,63.35
2018-05-03T02:05:22.530Z,62.98
2018-05-03T02:07:50.803Z,62.97
2018-05-03T02:10:19.099Z,62.84
2018-05-03T02:12:47.379Z,62.42
2018-05-03T02:15:15.650Z,62.63
2018-05-03T02:17:43.943Z,62.65
2018-05-03T02:20:12.234Z,63.21
2018-05-03T02:22:40.506Z,63.27
2018-05-03T02:25:08.808Z,63.45
2018-05-03T02:27:37.079Z,63.02
2018-05-03T02:30:05.350Z,62.52
2018-05-03T02:32:33.626Z,62.66
2018-05-03T02:35:01.906Z,62.71
2018-05-03T02:37:30.193Z,62.58
2018-05-03T02:39:58.478Z,62.02
2018-05-03T02:42:26.755Z,62.80
2018-05-03T02:44:55.030Z,62.50
2018-05-03T02:47:23.302Z,62.62
2018-05-03T02:49:51.590Z,62.76
2018-05-03T02:52:19.875Z,63.32
2018-05-03T02:54:48.150Z,64.13
2018-05-03T02:57:28.331Z,63.91
2018-05-03T03:00:08.474Z,64.47
2018-05-03T03:02:54.263Z,64.18
2018-05-03T03:05:40.155Z,64.13
2018-05-03T03:11:34.783Z,63.41
2018-05-03T03:17:57.972Z,63.16
2018-05-03T03:20:54.430Z,63.31
2018-05-03T03:23:40.415Z,62.64
2018-05-03T03:29:41.757Z,62.68
2018-05-03T03:32:21.862Z,62.57
2018-05-03T03:34:56.543Z,63.33
2018-05-03T03:37:36.518Z,63.30
2018-05-03T03:40:22.420Z,63.11
2018-05-03T03:43:05.570Z,63.62
2018-05-03T03:45:33.835Z,64.05
2018-05-03T03:48:02.102Z,64.67
2018-05-03T03:50:30.386Z,63.93
2018-05-03T03:52:58.654Z,64.40
2018-05-03T03:55:26.933Z,64.31
2018-05-03T03:57:55.219Z,64.32
2018-05-03T04:00:23.490Z,64.25
2018-05-03T04:02:51.776Z,64.45
2018-05-03T04:05:20.054Z,64.36
2018-05-03T04:07:48.330Z,64.88
2018-05-03T04:10:16.619Z,64.76
2018-05-03T04:12:44.886Z,64.80
2018-05-03T04:15:13.210Z,65.30
2018-05-03T04:17:53.219Z,64.93
2018-05-03T04:20:40.013Z,64.92
2018-05-03T04:26:19.198Z,65.76
2018-05-03T04:28:47.483Z,66.55
2018-05-03T04:31:15.767Z,66.57
2018-05-03T04:33:44.038Z,66.75
2018-05-03T04:36:12.318Z,67.00
2018-05-03T04:38:40.627Z,67.53
2018-05-03T04:41:08.896Z,68.11
2018-05-03T04:43:37.191Z,68.29
2018-05-03T04:46:05.490Z,68.52
2018-05-03T04:48:33.758Z,70.10
2018-05-03T04:51:02.052Z,70.38
2018-05-03T04:53:30.327Z,69.96
2018-05-03T04:55:58.624Z,71.05
2018-05-03T04:58:26.918Z,69.96
2018-05-03T05:00:55.194Z,69.75
2018-05-03T05:03:23.538Z,70.04
2018-05-03T05:05:51.817Z,72.25
2018-05-03T05:08:20.106Z,69.70
2018-05-03T05:10:48.374Z,70.01
2018-05-03T05:13:16.662Z,69.95
2018-05-03T05:15:44.937Z,70.38
2018-05-03T05:18:13.215Z,70.50
2018-05-03T05:20:41.752Z,70.13
2018-05-03T05:23:10.030Z,70.61
2018-05-03T05:25:38.354Z,70.59
2018-05-03T05:28:06.652Z,70.50
2018-05-03T05:30:34.995Z,70.17
2018-05-03T05:33:03.244Z,69.53
2018-05-03T05:35:31.518Z,67.61
2018-05-03T05:37:59.796Z,67.78
2018-05-03T05:40:28.086Z,66.98
2018-05-03T05:42:56.474Z,64.57
2018-05-03T05:45:24.762Z,64.46
2018-05-03T05:47:53.045Z,64.79
2018-05-03T05:50:21.583Z,62.91
2018-05-03T05:52:49.862Z,62.46
2018-05-03T05:55:18.150Z,62.94
2018-05-03T05:57:46.430Z,61.61
2018-05-03T06:00:14.730Z,61.23
2018-05-03T06:02:43.014Z,60.79
2018-05-03T06:05:11.298Z,60.93
2018-05-03T06:07:39.575Z,60.29
2018-05-03T06:10:07.867Z,61.18
2018-05-03T06:12:36.143Z,60.82
2018-05-03T06:15:04.437Z,60.09
2018-05-03T06:17:32.714Z,59.87
2018-05-03T06:20:00.990Z,60.60
2018-05-03T06:22:29.286Z,60.23
2018-05-03T06:24:57.570Z,59.95
2018-05-03T06:27:26.791Z,60.40
2018-05-03T06:29:55.062Z,60.41
2018-05-03T06:32:23.333Z,59.95
2018-05-03T06:34:51.626Z,59.48
2018-05-03T06:37:19.911Z,59.36
2018-05-03T06:39:48.591Z,58.74
2018-05-03T06:42:16.855Z,59.06
2018-05-03T06:44:45.130Z,58.05
2018-05-03T06:47:13.426Z,58.66
2018-05-03T06:49:41.706Z,59.65
2018-05-03T06:52:10.210Z,57.58
2018-05-03T06:54:38.503Z,57.62
2018-05-03T06:57:06.785Z,57.96
2018-05-03T06:59:35.068Z,57.21
2018-05-03T07:02:03.346Z,55.96
2018-05-03T07:04:31.762Z,55.80
2018-05-03T07:06:59.993Z,55.13
2018-05-03T07:09:28.267Z,53.97
2018-05-03T07:11:56.551Z,53.84
2018-05-03T07:14:24.826Z,53.19
2018-05-03T07:16:53.122Z,52.69
2018-05-03T07:19:21.393Z,52.91
2018-05-03T07:21:49.684Z,52.12
2018-05-03T07:24:17.959Z,51.70
2018-05-03T07:26:46.217Z,52.08
2018-05-03T07:29:14.506Z,50.93
2018-05-03T07:34:40.006Z,51.17
2018-05-03T07:37:08.279Z,49.64
2018-05-03T07:39:36.559Z,49.70
2018-05-03T07:42:04.841Z,49.92
2018-05-03T07:44:33.113Z,48.50
2018-05-03T07:47:01.398Z,49.89
2018-05-03T07:49:29.675Z,49.21
2018-05-03T07:51:57.941Z,48.66
2018-05-03T07:54:26.220Z,48.10
2018-05-03T07:56:54.493Z,47.77
2018-05-03T07:59:22.801Z,47.71
2018-05-03T08:01:51.073Z,46.89
2018-05-03T08:04:19.372Z,46.31
2018-05-03T08:06:47.634Z,45.91
2018-05-03T08:09:15.898Z,45.69
2018-05-03T08:11:44.543Z,43.36
2018-05-03T08:14:12.815Z,44.68
2018-05-03T08:16:41.114Z,43.44
2018-05-03T08:19:09.393Z,44.38
2018-05-03T08:21:37.658Z,44.83
2018-05-03T08:24:06.301Z,45.79
2018-05-03T08:26:34.574Z,46.21
2018-05-03T08:29:02.846Z,45.37
2018-05-03T08:31:31.128Z,44.45
2018-05-03T08:33:59.405Z,42.73
2018-05-03T08:36:28.040Z,40.95
2018-05-03T08:38:56.318Z,41.06
2018-05-03T08:41:24.593Z,42.19
2018-05-03T08:43:52.873Z,41.52
2018-05-03T08:46:21.144Z,40.94
2018-05-03T08:48:49.426Z,40.77
2018-05-03T08:51:17.699Z,41.87
2018-05-03T08:53:45.974Z,42.61
2018-05-03T08:56:14.263Z,43.07
2018-05-03T08:58:42.537Z,43.67
2018-05-03T09:01:10.835Z,44.00
2018-05-03T09:03:39.126Z,43.62
2018-05-03T09:06:07.409Z,43.73
2018-05-03T09:08:35.685Z,41.83
2018-05-03T09:11:03.961Z,40.12
2018-05-03T09:13:32.262Z,40.05
2018-05-03T09:16:00.530Z,40.61
2018-05-03T09:18:28.803Z,41.12
2018-05-03T09:20:57.082Z,41.00
2018-05-03T09:23:25.354Z,41.53
2018-05-03T09:25:53.637Z,41.42
2018-05-03T09:28:21.906Z,41.47
2018-05-03T09:30:50.174Z,41.34
2018-05-03T09:33:18.445Z,40.86
2018-05-03T09:35:46.714Z,39.77
2018-05-03T09:38:14.996Z,39.91
2018-05-03T09:40:43.262Z,39.62
2018-05-03T09:43:11.530Z,40.15
2018-05-03T09:45:39.814Z,40.52
2018-05-03T09:48:08.087Z,40.39
2018-05-03T09:50:36.371Z,39.65
2018-05-03T09:53:04.757Z,39.70
2018-05-03T09:55:33.017Z,39.31
2018-05-03T09:58:01.302Z,38.86
2018-05-03T10:00:29.571Z,37.82
2018-05-03T10:02:57.854Z,37.49
2018-05-03T10:05:26.137Z,37.42
2018-05-03T10:07:54.403Z,36.55
2018-05-03T10:10:22.676Z,38.24
2018-05-03T10:12:50.941Z,36.95
2018-05-03T10:15:19.229Z,36.76
2018-05-03T10:17:47.525Z,37.78
2018-05-03T10:20:15.801Z,39.08
2018-05-03T10:22:44.077Z,38.36
2018-05-03T10:25:12.353Z,38.81
2018-05-03T10:27:40.933Z,38.47
2018-05-03T10:30:09.296Z,38.17
2018-05-03T10:32:37.486Z,38.23
2018-05-03T10:35:05.762Z,37.76
2018-05-03T10:37:34.043Z,37.20
2018-05-03T10:40:02.354Z,38.18
2018-05-03T10:42:30.625Z,37.20
2018-05-03T10:44:58.905Z,37.83
2018-05-03T10:47:27.207Z,37.81
2018-05-03T10:49:55.492Z,37.58
2018-05-03T10:52:24.046Z,37.50
2018-05-03T10:54:52.326Z,36.83
2018-05-03T10:57:20.589Z,36.37
2018-05-03T10:59:48.890Z,37.41
2018-05-03T11:02:17.162Z,38.70
2018-05-03T11:04:45.701Z,38.30
2018-05-03T11:07:13.989Z,37.45
2018-05-03T11:09:42.263Z,36.03
2018-05-03T11:12:11.550Z,37.72
2018-05-03T11:14:39.814Z,35.36
2018-05-03T11:17:08.103Z,36.43
2018-05-03T11:19:36.377Z,36.96
2018-05-03T11:22:04.652Z,36.13
2018-05-03T11:24:32.926Z,37.04
2018-05-03T11:27:01.194Z,36.48
2018-05-03T11:29:29.469Z,35.69
2018-05-03T11:31:57.748Z,36.57
2018-05-03T11:34:27.990Z,36.72
2018-05-03T11:36:56.285Z,35.49
2018-05-03T11:39:24.545Z,35.31
2018-05-03T11:41:52.830Z,35.50
2018-05-03T11:44:21.102Z,35.57
2018-05-03T11:46:49.438Z,36.29
2018-05-03T11:49:17.729Z,36.12
2018-05-03T11:51:46.008Z,36.69
2018-05-03T11:54:14.310Z,37.51
2018-05-03T11:56:42.585Z,37.37
2018-05-03T11:59:10.883Z,36.02
2018-05-03T12:01:39.129Z,36.18
2018-05-03T12:04:07.456Z,35.58
2018-05-03T12:06:35.793Z,35.00
2018-05-03T12:09:04.074Z,35.22
2018-05-03T12:11:32.342Z,35.86
2018-05-03T12:14:00.646Z,35.12
2018-05-03T12:16:28.938Z,34.82
2018-05-03T12:18:57.252Z,34.91
2018-05-03T12:21:25.523Z,35.16
2018-05-03T12:23:53.788Z,34.35
2018-05-03T12:26:22.077Z,34.41
2018-05-03T12:28:50.351Z,33.23
2018-05-03T12:31:18.650Z,33.54
2018-05-03T12:33:46.922Z,34.03
2018-05-03T12:36:15.192Z,34.36
2018-05-03T12:38:43.461Z,34.43
2018-05-03T12:41:11.734Z,33.89
2018-05-03T12:43:40.318Z,33.19
2018-05-03T12:46:08.594Z,32.99
2018-05-03T12:48:36.878Z,33.04
2018-05-03T12:51:05.158Z,32.89
2018-05-03T12:53:33.449Z,32.04
2018-05-03T12:56:01.801Z,33.29
2018-05-03T12:58:30.137Z,33.84
2018-05-03T13:00:58.437Z,32.48
2018-05-03T13:03:26.758Z,31.32
2018-05-03T13:05:55.026Z,31.70
2018-05-03T13:08:23.297Z,30.74
2018-05-03T13:10:51.578Z,31.16
2018-05-03T13:13:19.872Z,29.70
2018-05-03T13:15:48.142Z,29.74
2018-05-03T13:18:16.459Z,30.35
2018-05-03T13:20:44.738Z,29.95
2018-05-03T13:23:13.181Z,28.93
2018-05-03T13:25:41.461Z,27.30
2018-05-03T13:28:09.734Z,26.79
2018-05-03T13:30:38.002Z,26.21
2018-05-03T13:33:06.289Z,26.61
2018-05-03T13:35:34.556Z,27.08
2018-05-03T13:38:02.834Z,28.45
2018-05-03T13:40:31.119Z,29.73
2018-05-03T13:42:59.393Z,30.02
2018-05-03T13:45:27.674Z,30.59
2018-05-03T13:47:55.965Z,29.32
2018-05-03T13:50:24.257Z,30.22
2018-05-03T13:52:52.534Z,30.67
2018-05-03T13:55:20.838Z,30.56
2018-05-03T13:57:54.830Z,30.45
2018-05-03T14:00:23.117Z,29.26
2018-05-03T14:02:51.394Z,29.44
2018-05-03T14:05:19.674Z,29.02
2018-05-03T14:07:48.198Z,29.47
2018-05-03T14:10:16.470Z,29.67
2018-05-03T14:12:44.737Z,28.75
2018-05-03T14:15:13.174Z,28.58
2018-05-03T14:17:41.447Z,28.29
2018-05-03T14:20:09.709Z,28.48
2018-05-03T14:22:38.194Z,28.76
2018-05-03T14:25:06.434Z,29.33
2018-05-03T14:27:34.721Z,29.63
2018-05-03T14:30:03.002Z,28.74
2018-05-03T14:32:31.273Z,29.04
2018-05-03T14:34:59.542Z,29.54
2018-05-03T14:37:27.856Z,29.46
2018-05-03T14:39:56.130Z,29.24
2018-05-03T14:42:24.393Z,30.27
2018-05-03T14:44:52.919Z,29.51
2018-05-03T14:47:21.267Z,29.89
2018-05-03T14:49:51.413Z,28.88
2018-05-03T14:52:20.051Z,29.06
2018-05-03T14:54:48.314Z,29.52
2018-05-03T14:57:17.509Z,28.79
2018-05-03T14:59:45.806Z,29.00
2018-05-03T15:02:14.083Z,29.24
2018-05-03T15:04:42.353Z,29.39
2018-05-03T15:07:10.643Z,29.19
2018-05-03T15:09:40.898Z,28.71
2018-05-03T15:12:10.120Z,28.83
2018-05-03T15:14:39.102Z,29.36
2018-05-03T15:17:07.376Z,29.62
2018-05-03T15:19:35.703Z,29.23
2018-05-03T15:22:03.961Z,29.70
2018-05-03T15:24:33.202Z,29.47
2018-05-03T15:27:01.503Z,29.27
2018-05-03T15:29:29.761Z,29.61
2018-05-03T15:31:58.041Z,30.20
2018-05-03T15:34:26.325Z,29.50
2018-05-03T15:36:54.594Z,29.32
2018-05-03T15:39:22.905Z,28.95
2018-05-03T15:41:51.178Z,29.69
2018-05-03T15:44:19.453Z,28.54
2018-05-03T15:46:47.722Z,28.54
2018-05-03T15:49:16.011Z,29.21
2018-05-03T15:51:44.321Z,29.09
2018-05-03T15:54:27.417Z,29.33
2018-05-03T15:56:55.685Z,29.20
2018-05-03T15:59:23.958Z,28.69
2018-05-03T16:01:52.258Z,28.87
2018-05-03T16:04:20.534Z,30.31
2018-05-03T16:06:48.818Z,29.61
2018-05-03T16:09:17.130Z,29.91
2018-05-03T16:11:45.440Z,30.19
2018-05-03T16:14:13.721Z,30.19
2018-05-03T16:16:41.989Z,30.35
2018-05-03T16:19:10.265Z,30.08
2018-05-03T16:21:38.563Z,31.15
2018-05-03T16:24:06.835Z,31.28
2018-05-03T16:26:35.122Z,31.30
2018-05-03T16:29:04.377Z,31.18
2018-05-03T16:31:32.642Z,30.52
2018-05-03T16:34:00.926Z,30.02
2018-05-03T16:36:29.193Z,29.80
2018-05-03T16:38:57.490Z,29.93
2018-05-03T16:41:25.766Z,29.86
2018-05-03T16:43:54.037Z,29.36
2018-05-03T16:46:22.315Z,29.62
2018-05-03T16:48:50.588Z,29.98
2018-05-03T16:51:19.213Z,31.02
2018-05-03T16:56:47.325Z,31.27
2018-05-03T16:59:15.671Z,31.84
2018-05-03T17:01:43.906Z,31.79
2018-05-03T17:04:12.185Z,31.63
2018-05-03T17:06:40.461Z,31.76
2018-05-03T17:09:09.011Z,30.63
2018-05-03T17:11:37.280Z,30.32
2018-05-03T17:14:05.594Z,30.56
2018-05-03T17:16:33.833Z,30.42
2018-05-03T17:19:02.121Z,31.13
2018-05-03T17:21:30.394Z,31.40
2018-05-03T17:23:58.660Z,31.81
2018-05-03T17:26:26.936Z,32.07
2018-05-03T17:28:55.405Z,31.89
2018-05-03T17:31:23.679Z,31.98
2018-05-03T17:33:52.032Z,32.63
2018-05-03T17:36:20.277Z,33.07
2018-05-03T17:38:48.555Z,32.86
2018-05-03T17:41:16.828Z,33.16
2018-05-03T17:43:45.098Z,33.58
2018-05-03T17:46:13.414Z,33.34
2018-05-03T17:48:41.701Z,33.55
2018-05-03T17:51:10.041Z,33.84
2018-05-03T17:53:38.266Z,33.54
2018-05-03T17:56:06.541Z,33.23
2018-05-03T17:58:34.829Z,33.90
2018-05-03T18:01:03.098Z,33.30
2018-05-03T18:03:31.372Z,34.03
2018-05-03T18:05:59.664Z,33.65
2018-05-03T18:08:27.937Z,33.03
2018-05-03T18:10:56.230Z,33.03
2018-05-03T18:13:24.498Z,32.26
2018-05-03T18:15:52.772Z,32.58
2018-05-03T18:18:21.058Z,32.33
2018-05-03T18:20:49.341Z,32.96
2018-05-03T18:23:17.658Z,32.65
2018-05-03T18:25:45.930Z,33.11
2018-05-03T18:28:14.225Z,33.13
2018-05-03T18:30:42.505Z,33.47
2018-05-03T18:33:10.789Z,33.50
2018-05-03T18:35:39.077Z,33.46
2018-05-03T18:38:07.407Z,33.72
2018-05-03T18:40:35.630Z,34.39
2018-05-03T18:43:03.913Z,34.44
2018-05-03T18:45:32.206Z,34.58
2018-05-03T18:48:00.501Z,34.86
2018-05-03T18:50:28.777Z,35.21
2018-05-03T18:52:57.049Z,35.72
2018-05-03T18:55:25.325Z,35.88
2018-05-03T18:57:53.594Z,36.31
2018-05-03T19:00:21.882Z,36.69
2018-05-03T19:02:50.142Z,36.72
2018-05-03T19:05:18.421Z,36.89
2018-05-03T19:07:46.721Z,37.49
2018-05-03T19:10:15.043Z,38.03
2018-05-03T19:12:43.289Z,38.12
2018-05-03T19:15:11.562Z,37.78
2018-05-03T19:17:39.837Z,38.40
2018-05-03T19:20:08.119Z,38.29
2018-05-03T19:22:36.385Z,39.06
2018-05-03T19:25:04.673Z,39.17
2018-05-03T19:27:32.941Z,39.64
2018-05-03T19:30:01.211Z,39.16
2018-05-03T19:32:29.489Z,39.36
2018-05-03T19:34:57.762Z,39.65
2018-05-03T19:37:26.038Z,39.76
2018-05-03T19:39:54.309Z,39.58
2018-05-03T19:42:22.597Z,39.61
2018-05-03T19:44:50.917Z,40.42
2018-05-03T19:47:19.168Z,40.28
2018-05-03T19:49:47.466Z,40.51
2018-05-03T19:52:15.741Z,42.58
2018-05-03T19:54:44.018Z,42.10
2018-05-03T19:57:12.299Z,41.30
2018-05-03T19:59:40.569Z,41.72
2018-05-03T20:02:08.849Z,42.10
2018-05-03T20:04:37.125Z,42.56
2018-05-03T20:07:05.401Z,42.73
2018-05-03T20:09:33.693Z,43.30
2018-05-03T20:12:01.963Z,43.01
2018-05-03T20:14:38.022Z,43.87
2018-05-03T20:17:06.299Z,43.90
2018-05-03T20:19:34.573Z,43.55
2018-05-03T20:22:02.986Z,42.99
2018-05-03T20:24:31.234Z,44.03
2018-05-03T20:26:59.563Z,45.18
2018-05-03T20:29:27.831Z,44.76
2018-05-03T20:31:56.102Z,44.79
2018-05-03T20:34:24.366Z,45.33
2018-05-03T20:36:53.638Z,44.81
2018-05-03T20:39:22.054Z,44.66
2018-05-03T20:41:50.344Z,46.01
2018-05-03T20:44:18.774Z,46.09
2018-05-03T20:46:47.048Z,45.76
2018-05-03T20:49:15.333Z,45.22
2018-05-03T20:51:43.602Z,45.30
2018-05-03T20:54:11.886Z,45.25
2018-05-03T20:56:40.158Z,44.37
2018-05-03T20:59:08.443Z,43.65
2018-05-03T21:01:36.726Z,44.29
2018-05-03T21:04:05.025Z,44.62
2018-05-03T21:06:33.330Z,44.68
2018-05-03T21:09:01.624Z,44.57
2018-05-03T21:11:35.879Z,45.06
2018-05-03T21:14:04.154Z,45.37
2018-05-03T21:16:32.424Z,45.45
2018-05-03T21:19:00.733Z,46.89
2018-05-03T21:21:29.005Z,47.00
2018-05-03T21:23:57.319Z,46.29
2018-05-03T21:26:25.607Z,46.98
2018-05-03T21:28:53.862Z,47.39
2018-05-03T21:31:22.137Z,46.66
2018-05-03T21:33:50.419Z,46.60
2018-05-03T21:36:18.709Z,47.15
2018-05-03T21:38:47.004Z,46.89
2018-05-03T21:41:16.238Z,47.59
2018-05-03T21:43:44.506Z,48.17
2018-05-03T21:46:12.797Z,48.90
2018-05-03T21:48:41.073Z,48.87
2018-05-03T21:51:10.142Z,48.47
2018-05-03T21:53:38.435Z,48.86
2018-05-03T21:56:06.719Z,49.00
2018-05-03T21:58:35.003Z,48.92
2018-05-03T22:01:03.332Z,49.08
2018-05-03T22:03:31.610Z,48.51
2018-05-03T22:05:59.896Z,48.29
2018-05-03T22:08:28.174Z,50.42
2018-05-03T22:10:56.446Z,50.36
2018-05-03T22:13:24.713Z,50.46
2018-05-03T22:15:52.994Z,50.66
2018-05-03T22:18:21.266Z,50.26
2018-05-03T22:20:49.561Z,50.40
2018-05-03T22:23:17.821Z,50.29
2018-05-03T22:25:46.093Z,50.89
2018-05-03T22:28:14.377Z,50.52
2018-05-03T22:30:49.510Z,50.21
2018-05-03T22:33:17.788Z,51.47
2018-05-03T22:35:46.061Z,51.68
2018-05-03T22:38:14.645Z,50.98
2018-05-03T22:40:42.975Z,52.52
2018-05-03T22:43:11.211Z,52.08
2018-05-03T22:45:39.505Z,52.34
2018-05-03T22:48:07.794Z,52.39
2018-05-03T22:50:36.071Z,52.42
2018-05-03T22:53:04.359Z,52.53
2018-05-03T22:55:32.651Z,53.37
2018-05-03T22:58:00.921Z,53.07
2018-05-03T23:00:29.193Z,52.88
2018-05-03T23:02:57.470Z,53.11
2018-05-03T23:05:25.737Z,53.25
2018-05-03T23:07:54.023Z,53.05
2018-05-03T23:10:22.289Z,52.81
2018-05-03T23:12:50.582Z,53.32
2018-05-03T23:15:18.856Z,54.31
2018-05-03T23:17:47.141Z,54.04
2018-05-03T23:20:15.416Z,53.78
2018-05-03T23:22:43.685Z,53.70
2018-05-03T23:25:11.968Z,53.82
2018-05-03T23:27:40.237Z,54.54
2018-05-03T23:30:08.507Z,54.40
2018-05-03T23:32:36.791Z,54.43
2018-05-03T23:35:05.053Z,53.33
2018-05-03T23:37:33.333Z,54.02
2018-05-03T23:40:01.611Z,54.57
2018-05-03T23:42:29.877Z,54.69
2018-05-03T23:44:58.153Z,54.70
2018-05-03T23:47:26.440Z,55.04
2018-05-03T23:49:54.719Z,55.46
2018-05-03T23:52:22.990Z,56.50
2018-05-03T23:54:51.262Z,55.58
2018-05-03T23:57:19.544Z,55.70
2018-05-03T23:59:47.814Z,55.79
